Time;durP1;ratioP1;P1;durP2;ratioP2;P2;SDS_P1;SDS_P2;PMS_P1;PMS_P2;Temp;Humidity;BMP_temperature;BMP_pressure;BME280_temperature;BME280_humidity;BME280_pressure;Samples;Min_cycle;Max_cycle;Signal;HPM_P1;HPM_P2
2021/10/07 00:01:56;;;;;;;;;;;;;;;12.40;59.41;100918.66;1360248;91;20376;-94
2021/10/07 00:04:22;;;;;;;;;;;;;;;12.39;58.97;100922.28;1360455;91;20250;-94
2021/10/07 00:06:49;;;;;;;;;;;;;;;12.37;58.91;100917.61;1361905;91;20176;-95
2021/10/07 00:09:14;;;;;;;;;;;;;;;12.36;59.04;100919.42;1360458;91;20234;-94
2021/10/07 00:11:42;;;;;;;;;;;;;;;12.36;59.15;100914.62;1359277;91;20309;-95
2021/10/07 00:14:08;;;;;;;;;;;;;;;12.35;59.04;100910.30;1358090;91;20227;-93
2021/10/07 00:16:34;;;;;;;;;;;;;;;12.33;58.63;100909.60;1358348;91;20249;-94
2021/10/07 00:19:00;;;;;;;;;;;;;;;12.33;58.02;100909.60;1357980;91;20830;-93
2021/10/07 00:21:27;;;;;;;;;;;;;;;12.33;58.47;100910.44;1364514;90;21123;-92
2021/10/07 00:24:08;;;;;;;;;;;;;;;12.34;58.24;100908.61;1357283;91;20890;-94
2021/10/07 00:26:36;;;;;;;;;;;;;;;12.34;58.35;100904.63;1357145;91;20281;-93
2021/10/07 00:31:44;;;;;;;;;;;;;;;12.36;58.69;100907.98;1357424;91;20257;-94
2021/10/07 00:34:19;;;;;;;;;;;;;;;12.34;58.59;100901.98;1356978;90;20924;-92
2021/10/07 00:36:58;;;;;;;;;;;;;;;12.32;58.76;100903.96;1344280;90;20260;-95
2021/10/07 00:39:08;;;;;;;;;;;;;;;12.33;58.79;100898.98;1341789;92;20297;-93
2021/10/07 00:41:37;;;;;;;;;;;;;;;12.27;57.86;100893.77;1340430;92;20334;-94
2021/10/07 00:44:05;;;;;;;;;;;;;;;12.30;58.81;100895.30;1348276;92;20253;-95
2021/10/07 00:46:32;;;;;;;;;;;;;;;12.30;59.28;100899.28;1343529;92;20297;-95
2021/10/07 00:48:59;;;;;;;;;;;;;;;12.29;58.59;100896.30;1342816;92;20298;-96
2021/10/07 00:51:27;;;;;;;;;;;;;;;12.27;58.93;100895.10;1342216;93;20186;-95
2021/10/07 00:53:53;;;;;;;;;;;;;;;12.25;59.03;100898.39;1341121;92;20259;-95
2021/10/07 00:56:20;;;;;;;;;;;;;;;12.23;57.88;100904.81;1341839;93;20260;-95
2021/10/07 00:58:47;;;;;;;;;;;;;;;12.24;58.69;100903.86;1341530;92;20245;-94
2021/10/07 01:01:13;;;;;;;;;;;;;;;12.24;58.73;100901.20;1339783;93;21199;-94
2021/10/07 01:03:38;;;;;;;;;;;;;;;12.17;59.08;100893.83;1338593;92;20341;-95
2021/10/07 01:06:04;;;;;;;;;;;;;;;12.18;58.51;100894.66;1339271;93;20237;-95
2021/10/07 01:08:30;;;;;;;;;;;;;;;12.17;59.47;100895.66;1339417;93;20823;-96
2021/10/07 01:10:56;;;;;;;;;;;;;;;12.13;59.37;100897.74;1339774;93;20387;-95
2021/10/07 01:13:22;;;;;;;;;;;;;;;12.13;58.59;100891.11;1340448;93;20252;-95
2021/10/07 01:15:48;;;;;;;;;;;;;;;12.12;58.99;100898.73;1341434;93;20266;-96
2021/10/07 01:18:15;;;;;;;;;;;;;;;12.09;59.29;100897.70;1341645;93;20780;-95
2021/10/07 01:20:41;;;;;;;;;;;;;;;12.07;60.38;100895.68;1341824;93;20311;-96
2021/10/07 01:23:07;;;;;;;;;;;;;;;12.06;59.48;100899.33;1339461;93;20244;-95
2021/10/07 01:25:34;;;;;;;;;;;;;;;12.06;58.40;100900.65;1348621;89;20451;-88
2021/10/07 01:28:01;;;;;;;;;;;;;;;12.03;59.03;100896.97;1362568;88;21994;31
2021/10/07 01:30:27;;;;;;;;;;;;;;;12.04;58.10;100898.63;1386909;89;20240;-94
2021/10/07 01:32:57;;;;;;;;;;;;;;;12.04;58.52;100902.61;1392895;89;20240;-92
2021/10/07 01:35:23;;;;;;;;;;;;;;;12.04;58.27;100905.26;1393127;89;20310;-92
2021/10/07 01:37:49;;;;;;;;;;;;;;;12.03;58.18;100908.91;1392642;89;20218;-93
2021/10/07 01:45:13;;;;;;;;;;;;;;;12.01;58.25;100910.02;1347504;90;20181;-94
2021/10/07 01:47:39;;;;;;;;;;;;;;;11.96;57.79;100907.30;1354526;89;20453;-91
2021/10/07 01:50:08;;;;;;;;;;;;;;;11.96;58.56;100906.47;1370674;87;20214;-92
2021/10/07 01:52:35;;;;;;;;;;;;;;;11.92;59.06;100905.09;1360561;91;20778;-93
2021/10/07 01:57:31;;;;;;;;;;;;;;;11.88;59.60;100912.52;1382426;87;20176;31
2021/10/07 02:00:00;;;;;;;;;;;;;;;11.83;59.91;100912.56;1354584;88;21285;31
2021/10/07 02:02:27;;;;;;;;;;;;;;;11.80;60.31;100914.19;1364399;88;20305;31
2021/10/07 02:04:54;;;;;;;;;;;;;;;11.79;60.00;100911.16;1349138;92;20257;-93
2021/10/07 02:07:20;;;;;;;;;;;;;;;11.77;60.37;100925.05;1344739;92;20283;-93
2021/10/07 02:09:46;;;;;;;;;;;;;;;11.73;60.06;100922.69;1344660;92;20290;-93
2021/10/07 02:12:12;;;;;;;;;;;;;;;11.72;60.37;100923.67;1344791;92;20299;-92
2021/10/07 02:14:38;;;;;;;;;;;;;;;11.71;61.11;100923.34;1345783;92;20268;-95
2021/10/07 02:17:04;;;;;;;;;;;;;;;11.69;60.60;100929.77;1345849;92;20276;-96
2021/10/07 02:19:30;;;;;;;;;;;;;;;11.65;60.76;100928.35;1344674;92;20870;-96
2021/10/07 02:21:56;;;;;;;;;;;;;;;11.62;61.17;100930.80;1344884;92;20246;-94
2021/10/07 02:24:23;;;;;;;;;;;;;;;11.66;60.88;100928.23;1345010;92;20253;-94
2021/10/07 02:26:48;;;;;;;;;;;;;;;11.66;60.85;100926.91;1345724;92;20855;-96
2021/10/07 02:29:14;;;;;;;;;;;;;;;11.65;60.95;100932.33;1344614;92;20320;-95
2021/10/07 02:31:40;;;;;;;;;;;;;;;11.64;61.24;100935.48;1345683;92;20230;-95
2021/10/07 02:34:06;;;;;;;;;;;;;;;11.64;60.81;100936.80;1346069;92;20314;-96
2021/10/07 02:36:32;;;;;;;;;;;;;;;11.62;61.49;100937.42;1345661;92;20262;-95
2021/10/07 02:38:58;;;;;;;;;;;;;;;11.58;61.29;100940.02;1331244;93;20395;-96
2021/10/07 02:41:24;;;;;;;;;;;;;;;11.61;61.07;100941.56;1349784;88;20487;-95
2021/10/07 02:46:23;;;;;;;;;;;;;;;11.59;61.53;100945.66;1338400;89;20311;31
2021/10/07 02:48:55;;;;;;;;;;;;;;;11.60;62.03;100941.22;1351029;88;20556;31
2021/10/07 02:51:21;;;;;;;;;;;;;;;11.62;61.91;100951.17;1363211;87;21941;31
2021/10/07 02:53:48;;;;;;;;;;;;;;;11.58;61.10;100944.50;1357118;89;20587;31
2021/10/07 02:56:14;;;;;;;;;;;;;;;11.59;61.65;100949.64;1335800;93;20300;-92
2021/10/07 02:58:40;;;;;;;;;;;;;;;11.58;61.92;100947.98;1333210;93;20374;-94
2021/10/07 03:01:06;;;;;;;;;;;;;;;11.59;61.51;100952.30;1331391;93;20247;-92
2021/10/07 03:03:32;;;;;;;;;;;;;;;11.59;61.95;100957.59;1358783;90;20257;-93
2021/10/07 03:05:58;;;;;;;;;;;;;;;11.59;61.07;100949.64;1360491;91;20325;-93
2021/10/07 03:08:27;;;;;;;;;;;;;;;11.57;60.82;100954.27;1361446;91;20242;-94
2021/10/07 03:10:52;;;;;;;;;;;;;;;11.60;61.56;100959.29;1362402;90;20199;-94
2021/10/07 03:13:17;;;;;;;;;;;;;;;11.60;60.97;100956.63;1361937;90;20213;-94
2021/10/07 03:15:47;;;;;;;;;;;;;;;11.61;60.71;100956.14;1361670;88;20435;31
2021/10/07 03:18:12;;;;;;;;;;;;;;;11.65;60.89;100955.73;1403535;87;20172;-93
2021/10/07 03:23:07;;;;;;;;;;;;;;;11.68;60.84;100960.75;1390872;86;20248;-94
2021/10/07 03:25:37;;;;;;;;;;;;;;;11.65;61.47;100962.36;1378105;86;22257;31
2021/10/07 03:28:09;;;;;;;;;;;;;;;11.68;60.92;100956.77;1361651;88;20426;31
2021/10/07 03:30:35;;;;;;;;;;;;;;;11.68;60.61;100955.45;1396398;86;20341;-80
2021/10/07 03:33:05;;;;;;;;;;;;;;;11.67;60.18;100957.73;1370412;87;22912;31
2021/10/07 03:35:31;;;;;;;;;;;;;;;11.69;60.71;100956.28;1383859;89;20205;-95
2021/10/07 03:37:57;;;;;;;;;;;;;;;11.69;60.30;100957.11;1391446;86;24353;-94
2021/10/07 03:40:23;;;;;;;;;;;;;;;11.66;60.21;100957.89;1401184;86;22132;-83
2021/10/07 03:42:49;;;;;;;;;;;;;;;11.70;60.31;100960.09;1388459;89;20281;-94
2021/10/07 03:45:15;;;;;;;;;;;;;;;11.68;60.20;100958.56;1385079;89;20862;-94
2021/10/07 03:47:41;;;;;;;;;;;;;;;11.69;60.32;100959.76;1384585;89;20266;-94
2021/10/07 03:52:40;;;;;;;;;;;;;;;11.68;60.63;100954.12;1371754;87;20330;31
2021/10/07 03:55:10;;;;;;;;;;;;;;;11.68;60.35;100954.12;1377216;86;20246;31
2021/10/07 03:57:36;;;;;;;;;;;;;;;11.67;58.98;100960.38;1376943;87;20313;-94
2021/10/07 04:00:03;;;;;;;;;;;;;;;11.73;59.82;100958.48;1389313;86;20706;-94
2021/10/07 04:02:30;;;;;;;;;;;;;;;11.74;59.24;100964.16;1379914;86;20393;-92
2021/10/07 04:04:58;;;;;;;;;;;;;;;11.78;59.69;100969.17;1359707;86;20169;31
2021/10/07 04:07:25;;;;;;;;;;;;;;;11.75;60.01;100960.52;1392449;86;20573;-94
2021/10/07 04:09:52;;;;;;;;;;;;;;;11.77;59.12;100964.83;1386578;86;20284;31
2021/10/07 04:14:48;;;;;;;;;;;;;;;11.82;59.83;100970.55;1381104;86;21973;-85
2021/10/07 04:17:18;;;;;;;;;;;;;;;11.81;59.40;100968.88;1401649;86;20489;31
2021/10/07 04:19:44;;;;;;;;;;;;;;;11.81;59.81;100970.20;1382293;86;20176;-94
2021/10/07 04:22:10;;;;;;;;;;;;;;;11.81;59.20;100971.53;1341574;93;20251;-95
2021/10/07 04:24:36;;;;;;;;;;;;;;;11.82;59.12;100966.56;1341305;93;20340;-93
2021/10/07 04:27:02;;;;;;;;;;;;;;;11.80;59.67;100976.02;1338188;93;20227;-95
2021/10/07 04:29:28;;;;;;;;;;;;;;;11.82;58.83;100979.83;1363793;87;20215;-95
2021/10/07 04:31:54;;;;;;;;;;;;;;;11.84;59.33;100981.86;1420980;87;20326;-95
2021/10/07 04:34:20;;;;;;;;;;;;;;;11.84;59.81;100981.86;1420720;87;20171;-95
2021/10/07 04:36:46;;;;;;;;;;;;;;;11.84;58.57;100987.16;1403126;86;20214;-93
2021/10/07 04:39:12;;;;;;;;;;;;;;;11.86;58.95;100977.29;1344351;92;20193;-94
2021/10/07 04:41:38;;;;;;;;;;;;;;;11.87;59.05;100982.44;1363867;86;20322;-92
2021/10/07 04:44:05;;;;;;;;;;;;;;;11.88;59.71;100983.27;1388758;88;20297;-92
2021/10/07 04:46:31;;;;;;;;;;;;;;;11.91;59.44;100982.98;1395189;88;20239;-92
2021/10/07 04:48:57;;;;;;;;;;;;;;;11.88;59.44;100976.17;1382744;89;20236;-93
2021/10/07 04:51:23;;;;;;;;;;;;;;;11.87;58.86;100982.44;1381905;89;20247;-95
2021/10/07 04:53:49;;;;;;;;;;;;;;;11.85;59.06;100980.87;1381224;89;20247;-93
2021/10/07 04:56:15;;;;;;;;;;;;;;;11.87;59.21;100985.58;1384277;89;20237;-92
2021/10/07 04:58:41;;;;;;;;;;;;;;;11.87;59.45;100988.23;1399941;88;20251;-93
2021/10/07 05:08:48;;;;;;;;;;;;;;;11.85;59.96;100990.15;1374489;90;20243;-95
2021/10/07 05:11:14;;;;;;;;;;;;;;;11.86;59.55;100986.58;1392153;89;20262;-93
2021/10/07 05:13:40;;;;;;;;;;;;;;;11.92;59.07;100988.65;1390454;89;20232;-93
2021/10/07 05:16:07;;;;;;;;;;;;;;;11.95;59.16;100988.36;1389777;89;20233;-95
2021/10/07 05:18:32;;;;;;;;;;;;;;;11.97;59.61;100993.05;1394262;86;20812;-92
2021/10/07 05:20:58;;;;;;;;;;;;;;;12.01;58.97;100998.89;1389904;89;20264;-93
2021/10/07 05:23:24;;;;;;;;;;;;;;;12.01;58.58;101005.03;1393484;86;20799;-93
2021/10/07 05:25:50;;;;;;;;;;;;;;;12.07;59.44;101004.45;1384545;89;20256;-92
2021/10/07 05:28:16;;;;;;;;;;;;;;;12.10;59.15;101006.82;1386633;89;20242;-94
2021/10/07 05:30:42;;;;;;;;;;;;;;;12.10;59.24;101004.17;1386761;89;20286;-94
2021/10/07 05:33:08;;;;;;;;;;;;;;;12.12;59.31;101004.87;1385835;89;20739;-92
2021/10/07 05:35:34;;;;;;;;;;;;;;;12.14;59.18;101006.03;1381590;89;20319;-93
2021/10/07 05:38:01;;;;;;;;;;;;;;;12.18;59.26;101005.62;1384077;89;20256;-92
2021/10/07 05:40:27;;;;;;;;;;;;;;;12.18;59.05;101004.30;1384432;89;21205;-91
2021/10/07 05:42:53;;;;;;;;;;;;;;;12.24;59.35;100998.90;1384626;89;20233;-94
2021/10/07 05:45:18;;;;;;;;;;;;;;;12.26;59.62;100997.44;1384556;89;20339;-92
2021/10/07 05:47:44;;;;;;;;;;;;;;;12.26;58.31;100995.63;1387291;89;20308;-95
2021/10/07 05:50:12;;;;;;;;;;;;;;;12.33;58.30;100998.52;1388153;89;20260;-92
2021/10/07 05:52:38;;;;;;;;;;;;;;;12.35;58.36;101000.55;1384786;89;20240;-93
2021/10/07 05:55:04;;;;;;;;;;;;;;;12.32;57.90;101004.82;1383945;89;20740;-91
2021/10/07 05:57:30;;;;;;;;;;;;;;;12.34;58.09;101005.48;1383163;89;20341;-92
2021/10/07 05:59:56;;;;;;;;;;;;;;;12.30;58.64;101006.77;1382942;89;20279;-92
2021/10/07 06:02:22;;;;;;;;;;;;;;;12.33;58.32;101009.14;1383087;89;20763;-90
2021/10/07 06:04:48;;;;;;;;;;;;;;;12.31;58.06;101013.25;1383120;89;20240;-90
2021/10/07 06:07:14;;;;;;;;;;;;;;;12.36;58.39;101015.48;1382913;89;20241;-91
2021/10/07 06:09:40;;;;;;;;;;;;;;;12.26;58.37;101008.06;1383042;89;20249;-89
2021/10/07 06:12:07;;;;;;;;;;;;;;;12.30;58.59;101004.12;1382969;89;20225;-91
2021/10/07 06:14:33;;;;;;;;;;;;;;;12.28;58.11;101006.08;1382937;89;20739;-90
2021/10/07 06:16:59;;;;;;;;;;;;;;;12.27;57.88;101007.06;1382897;89;20331;-90
2021/10/07 06:19:26;;;;;;;;;;;;;;;12.33;58.39;101000.68;1382909;89;20305;-91
2021/10/07 06:21:52;;;;;;;;;;;;;;;12.32;57.76;101004.33;1383030;89;20375;-91
2021/10/07 06:24:19;;;;;;;;;;;;;;;12.35;57.66;101001.38;1365181;89;20257;-91
2021/10/07 06:26:45;;;;;;;;;;;;;;;12.42;57.42;100993.66;1358731;90;20282;-91
2021/10/07 06:29:11;;;;;;;;;;;;;;;12.47;57.06;100992.73;1358601;91;20777;-91
2021/10/07 06:31:38;;;;;;;;;;;;;;;12.49;57.32;100999.24;1358716;91;20332;-93
2021/10/07 06:34:05;;;;;;;;;;;;;;;12.49;57.47;100996.09;1358548;91;20264;-91
2021/10/07 06:36:31;;;;;;;;;;;;;;;12.55;56.60;100996.83;1358601;91;20308;-90
2021/10/07 06:38:57;;;;;;;;;;;;;;;12.58;57.06;100999.19;1358553;91;20274;-91
2021/10/07 06:41:23;;;;;;;;;;;;;;;12.68;57.67;100996.48;1358508;91;20903;-89
2021/10/07 06:43:49;;;;;;;;;;;;;;;12.66;57.15;100997.14;1358510;91;20242;-90
2021/10/07 06:46:15;;;;;;;;;;;;;;;12.78;56.42;100993.80;1359162;91;20256;-90
2021/10/07 06:48:41;;;;;;;;;;;;;;;12.84;57.34;100999.34;1358524;91;20257;-91
2021/10/07 06:51:11;;;;;;;;;;;;;;;12.92;55.53;100996.41;1358465;91;20338;-90
2021/10/07 06:53:38;;;;;;;;;;;;;;;12.93;55.56;100992.30;1358616;90;20234;-91
2021/10/07 06:56:05;;;;;;;;;;;;;;;12.98;54.84;101000.66;1351445;92;20278;-93
2021/10/07 06:58:31;;;;;;;;;;;;;;;12.98;55.55;100995.34;1361216;90;20257;-96
2021/10/07 07:04:07;;;;;;;;;;;;;;;13.01;56.03;100993.72;1379305;86;20268;-89
2021/10/07 07:12:25;;;;;;;;;;;;;;;13.21;54.81;101010.37;1383590;86;20290;-87
2021/10/07 07:14:50;;;;;;;;;;;;;;;13.30;54.44;101020.63;1388380;87;20318;-94
2021/10/07 07:17:20;;;;;;;;;;;;;;;13.40;55.05;101025.86;1374624;86;20285;31
2021/10/07 07:19:46;;;;;;;;;;;;;;;13.44;54.04;101034.73;1383846;86;20235;-94
2021/10/07 07:24:40;;;;;;;;;;;;;;;13.53;53.04;101049.77;1391874;86;20429;-93
2021/10/07 07:27:07;;;;;;;;;;;;;;;13.54;53.06;101043.95;1343597;89;20269;-95
2021/10/07 07:29:37;;;;;;;;;;;;;;;13.71;53.39;101052.92;1361660;86;20433;31
2021/10/07 07:32:05;;;;;;;;;;;;;;;13.86;53.44;101051.38;1373316;89;20217;-96
2021/10/07 07:34:35;;;;;;;;;;;;;;;14.02;53.62;101051.19;1355071;89;20230;31
2021/10/07 07:37:01;;;;;;;;;;;;;;;14.20;52.08;101056.80;1347989;90;20558;-95
2021/10/07 07:39:45;;;;;;;;;;;;;;;14.41;53.10;101060.45;1371905;87;20205;31
2021/10/07 07:42:11;;;;;;;;;;;;;;;14.60;52.09;101058.58;1358691;91;20415;-90
2021/10/07 07:44:39;;;;;;;;;;;;;;;14.85;52.67;101063.03;1357654;91;20243;-89
2021/10/07 07:47:05;;;;;;;;;;;;;;;15.03;50.06;101071.43;1357607;91;20266;-91
2021/10/07 07:49:31;;;;;;;;;;;;;;;15.23;51.50;101068.83;1359835;91;20249;-96
2021/10/07 07:51:57;;;;;;;;;;;;;;;15.30;49.30;101063.67;1362063;91;20242;-95
2021/10/07 07:54:23;;;;;;;;;;;;;;;15.24;48.82;101063.81;1361791;91;20911;-94
2021/10/07 07:56:49;;;;;;;;;;;;;;;15.24;48.23;101062.48;1361929;91;20222;-95
2021/10/07 07:59:15;;;;;;;;;;;;;;;15.24;49.02;101057.66;1362472;91;20289;-95
2021/10/07 08:01:43;;;;;;;;;;;;;;;15.14;48.29;101049.81;1361952;91;20816;-96
2021/10/07 08:04:09;;;;;;;;;;;;;;;15.28;48.53;101052.35;1361730;91;20229;-96
2021/10/07 08:06:36;;;;;;;;;;;;;;;15.30;48.11;101048.50;1362263;91;20796;-96
2021/10/07 08:09:04;;;;;;;;;;;;;;;15.49;49.33;101053.22;1361998;91;20222;-95
2021/10/07 08:11:39;;;;;;;;;;;;;;;15.48;48.13;101055.56;1361656;91;20252;-95
2021/10/07 08:14:00;;;;;;;;;;;;;;;15.53;47.46;101047.88;1359982;91;20281;-96
2021/10/07 08:16:29;;;;;;;;;;;;;;;15.51;47.20;101056.56;1361225;91;20251;-96
2021/10/07 08:18:55;;;;;;;;;;;;;;;15.59;46.76;101052.55;1361451;91;20266;-96
2021/10/07 08:21:21;;;;;;;;;;;;;;;15.71;47.72;101052.61;1362137;91;20170;-96
2021/10/07 08:23:48;;;;;;;;;;;;;;;15.71;46.31;101050.45;1352969;91;20857;-95
2021/10/07 08:26:15;;;;;;;;;;;;;;;15.64;47.07;101050.22;1354543;92;20236;-96
2021/10/07 08:28:41;;;;;;;;;;;;;;;15.66;47.67;101050.08;1362320;91;20222;-96
2021/10/07 08:31:11;;;;;;;;;;;;;;;15.63;48.00;101048.56;1361224;91;20235;-96
2021/10/07 08:33:35;;;;;;;;;;;;;;;15.50;48.23;101049.54;1362349;91;20252;-95
2021/10/07 08:36:02;;;;;;;;;;;;;;;15.46;47.28;101040.21;1361953;91;20251;-96
2021/10/07 08:38:29;;;;;;;;;;;;;;;15.47;47.77;101044.53;1363759;91;20170;-96
2021/10/07 08:40:56;;;;;;;;;;;;;;;15.46;47.67;101044.21;1345018;92;20226;-96
2021/10/07 08:43:24;;;;;;;;;;;;;;;15.51;47.22;101041.89;1344633;92;20246;-96
2021/10/07 08:45:51;;;;;;;;;;;;;;;15.52;47.97;101039.55;1369480;92;20226;-96
2021/10/07 08:48:17;;;;;;;;;;;;;;;15.71;47.18;101045.11;1347673;92;20272;-95
2021/10/07 08:50:43;;;;;;;;;;;;;;;15.76;46.95;101046.25;1364741;91;20241;-96
2021/10/07 08:53:09;;;;;;;;;;;;;;;15.88;46.75;101048.59;1348403;92;20271;-96
2021/10/07 08:55:35;;;;;;;;;;;;;;;15.92;47.51;101055.28;1365349;91;20360;-96
2021/10/07 08:58:01;;;;;;;;;;;;;;;15.97;46.94;101056.95;1357892;91;20763;-96
2021/10/07 09:00:27;;;;;;;;;;;;;;;16.04;47.56;101059.27;1351422;92;20312;-96
2021/10/07 09:02:53;;;;;;;;;;;;;;;16.15;46.98;101061.60;1360820;90;20253;-96
2021/10/07 09:05:23;;;;;;;;;;;;;;;16.19;46.64;101059.42;1358870;91;20786;-96
2021/10/07 09:07:58;;;;;;;;;;;;;;;16.15;45.91;101065.61;1346331;92;20186;-96
2021/10/07 09:10:44;;;;;;;;;;;;;;;16.20;45.41;101063.27;1345866;91;20261;-95
2021/10/07 09:13:16;;;;;;;;;;;;;;;16.17;45.65;101062.28;1340716;92;20232;-96
2021/10/07 09:15:45;;;;;;;;;;;;;;;16.18;46.23;101067.94;1340697;93;20299;-95
2021/10/07 09:18:14;;;;;;;;;;;;;;;16.14;46.32;101072.44;1341172;93;20277;-96
2021/10/07 09:20:43;;;;;;;;;;;;;;;16.14;45.27;101079.98;1341188;92;20788;-96
2021/10/07 09:23:13;;;;;;;;;;;;;;;16.17;45.79;101074.77;1328748;93;20254;-96
2021/10/07 09:26:06;;;;;;;;;;;;;;;16.26;45.49;101079.12;1340478;93;20254;-96
2021/10/07 09:28:53;;;;;;;;;;;;;;;16.41;44.62;101073.92;1340469;92;20230;-96
2021/10/07 09:31:33;;;;;;;;;;;;;;;16.50;44.39;101078.23;1340389;93;20309;-96
2021/10/07 09:34:02;;;;;;;;;;;;;;;16.66;45.83;101078.20;1340523;93;20223;-96
2021/10/07 09:36:31;;;;;;;;;;;;;;;16.89;44.12;101074.83;1339699;93;20298;-96
2021/10/07 09:38:58;;;;;;;;;;;;;;;17.21;44.19;101069.83;1341633;93;20224;-96
2021/10/07 09:41:29;;;;;;;;;;;;;;;17.10;42.98;101060.85;1341997;93;20253;-96
2021/10/07 09:43:59;;;;;;;;;;;;;;;17.52;43.57;101070.30;1330146;92;20300;-96
2021/10/07 09:46:49;;;;;;;;;;;;;;;17.65;43.54;101064.36;1342383;92;20248;-96
2021/10/07 09:49:24;;;;;;;;;;;;;;;17.63;42.37;101067.20;1343270;91;20261;-96
2021/10/07 09:51:54;;;;;;;;;;;;;;;17.62;42.30;101062.05;1341514;93;20203;-96
2021/10/07 09:54:31;;;;;;;;;;;;;;;17.73;42.64;101066.98;1342930;93;20195;-96
2021/10/07 09:57:03;;;;;;;;;;;;;;;18.01;42.76;101060.09;1359537;86;20240;-94
2021/10/07 09:59:33;;;;;;;;;;;;;;;18.22;41.59;101056.71;1359154;91;20225;-94
2021/10/07 10:01:59;;;;;;;;;;;;;;;18.43;41.61;101056.50;1359345;91;20696;-94
2021/10/07 10:04:27;;;;;;;;;;;;;;;18.70;41.54;101055.02;1356269;91;20287;-93
2021/10/07 10:06:54;;;;;;;;;;;;;;;18.83;42.83;101056.57;1353905;91;20339;-90
2021/10/07 10:09:25;;;;;;;;;;;;;;;19.04;40.42;101053.63;1345903;92;20903;-91
2021/10/07 10:11:52;;;;;;;;;;;;;;;19.29;38.45;101058.98;1345185;93;20230;-92
2021/10/07 10:14:22;;;;;;;;;;;;;;;19.28;39.50;101059.19;1344156;93;20272;-89
2021/10/07 10:16:49;;;;;;;;;;;;;;;19.39;38.53;101066.23;1335771;92;20266;-90
2021/10/07 10:19:15;;;;;;;;;;;;;;;19.29;38.24;101067.03;1335815;92;20341;-89
2021/10/07 10:21:43;;;;;;;;;;;;;;;19.36;38.34;101069.30;1335938;92;20826;-91
2021/10/07 10:24:11;;;;;;;;;;;;;;;19.43;38.95;101075.25;1335888;92;20252;-91
2021/10/07 10:26:38;;;;;;;;;;;;;;;19.49;39.10;101064.56;1335940;93;20325;-91
2021/10/07 10:29:06;;;;;;;;;;;;;;;19.40;38.82;101071.09;1335979;92;20745;-91
2021/10/07 10:31:35;;;;;;;;;;;;;;;19.15;38.56;101068.73;1336534;92;20750;-91
2021/10/07 10:34:13;;;;;;;;;;;;;;;19.40;39.74;101076.45;1350640;93;20353;-92
2021/10/07 10:36:48;;;;;;;;;;;;;;;19.46;39.21;101074.86;1339282;91;20251;-93
2021/10/07 10:39:21;;;;;;;;;;;;;;;19.52;38.27;101068.73;1335850;93;20252;-92
2021/10/07 10:41:50;;;;;;;;;;;;;;;19.61;39.26;101064.89;1338601;92;20298;-92
2021/10/07 10:44:29;;;;;;;;;;;;;;;19.48;38.87;101070.97;1353595;92;20756;-93
2021/10/07 10:47:10;;;;;;;;;;;;;;;19.38;39.34;101072.60;1350958;91;20294;-92
2021/10/07 10:49:52;;;;;;;;;;;;;;;19.31;39.28;101066.34;1345699;92;20368;-92
2021/10/07 10:52:35;;;;;;;;;;;;;;;19.03;39.65;101062.19;1353693;91;20257;-93
2021/10/07 10:55:18;;;;;;;;;;;;;;;19.10;39.59;101071.17;1353409;91;20241;-92
2021/10/07 10:57:52;;;;;;;;;;;;;;;19.30;39.72;101070.55;1353792;90;20346;-91
2021/10/07 11:00:23;;;;;;;;;;;;;;;19.33;38.45;101066.99;1353724;91;20212;-92
2021/10/07 11:02:53;;;;;;;;;;;;;;;19.49;38.14;101070.45;1353884;91;20340;-93
2021/10/07 11:05:24;;;;;;;;;;;;;;;19.55;37.74;101067.00;1353627;91;20384;-94
2021/10/07 11:08:19;;;;;;;;;;;;;;;19.63;37.77;101066.06;1349827;90;20348;-91
2021/10/07 11:10:50;;;;;;;;;;;;;;;19.69;38.59;101064.80;1346991;94;20302;-92
2021/10/07 11:13:24;;;;;;;;;;;;;;;19.76;38.79;101059.48;1353079;92;20234;-94
2021/10/07 11:15:57;;;;;;;;;;;;;;;19.76;37.36;101063.00;1353438;91;20778;-94
2021/10/07 11:18:26;;;;;;;;;;;;;;;19.68;36.38;101055.09;1353660;91;20243;-94
2021/10/07 11:21:00;;;;;;;;;;;;;;;19.86;37.31;101062.69;1353623;91;20890;-93
2021/10/07 11:23:28;;;;;;;;;;;;;;;19.62;38.12;101061.17;1348177;91;20748;-93
2021/10/07 11:25:56;;;;;;;;;;;;;;;19.56;37.68;101055.23;1348963;92;20874;-93
2021/10/07 11:28:28;;;;;;;;;;;;;;;19.80;37.48;101054.89;1342301;93;20867;-94
2021/10/07 11:31:09;;;;;;;;;;;;;;;19.86;37.28;101057.83;1344994;92;20302;-93
2021/10/07 11:33:39;;;;;;;;;;;;;;;19.48;36.55;101057.55;1353332;91;20242;-92
2021/10/07 11:36:08;;;;;;;;;;;;;;;19.47;37.64;101052.36;1353620;91;20257;-93
2021/10/07 11:38:41;;;;;;;;;;;;;;;19.49;37.96;101047.63;1353669;91;20357;-94
2021/10/07 11:41:07;;;;;;;;;;;;;;;19.34;37.54;101061.94;1353609;91;20323;-93
2021/10/07 11:43:35;;;;;;;;;;;;;;;18.89;37.70;101058.50;1353630;91;20778;-93
2021/10/07 11:46:04;;;;;;;;;;;;;;;19.02;38.04;101050.29;1353637;91;20807;-94
2021/10/07 11:48:30;;;;;;;;;;;;;;;19.22;38.11;101048.70;1353796;91;20784;-94
2021/10/07 11:51:02;;;;;;;;;;;;;;;19.26;38.21;101054.00;1353788;90;20241;-94
2021/10/07 11:53:34;;;;;;;;;;;;;;;19.23;38.35;101055.72;1353484;91;20317;-94
2021/10/07 11:56:06;;;;;;;;;;;;;;;19.41;38.40;101061.17;1353555;93;20368;-94
2021/10/07 11:58:32;;;;;;;;;;;;;;;19.38;37.88;101059.18;1350411;90;20339;-94
2021/10/07 12:00:58;;;;;;;;;;;;;;;19.20;37.60;101052.08;1361199;91;20263;-93
2021/10/07 12:03:26;;;;;;;;;;;;;;;19.21;37.74;101048.36;1353735;91;20272;-94
2021/10/07 12:05:58;;;;;;;;;;;;;;;19.18;37.61;101053.28;1353732;90;20249;-96
2021/10/07 12:08:27;;;;;;;;;;;;;;;19.12;38.06;101049.50;1353743;91;20392;-94
2021/10/07 12:10:56;;;;;;;;;;;;;;;19.07;37.18;101052.73;1353676;91;20296;-92
2021/10/07 12:13:26;;;;;;;;;;;;;;;19.16;38.84;101054.80;1354159;90;20279;-94
2021/10/07 12:15:59;;;;;;;;;;;;;;;19.24;37.35;101056.03;1353862;92;20250;-95
2021/10/07 12:18:26;;;;;;;;;;;;;;;19.11;37.89;101058.06;1336730;91;20274;-94
2021/10/07 12:21:02;;;;;;;;;;;;;;;19.41;37.39;101059.31;1335566;93;20237;-94
2021/10/07 12:23:29;;;;;;;;;;;;;;;19.66;36.98;101061.16;1335936;93;20304;-96
2021/10/07 12:25:59;;;;;;;;;;;;;;;19.70;35.46;101053.02;1336139;93;20267;-93
2021/10/07 12:28:25;;;;;;;;;;;;;;;19.64;35.49;101056.97;1335872;92;20237;-95
2021/10/07 12:31:04;;;;;;;;;;;;;;;19.51;36.01;101057.68;1335837;93;20397;-95
2021/10/07 12:33:32;;;;;;;;;;;;;;;19.65;36.86;101062.19;1335730;92;20358;-94
2021/10/07 12:36:04;;;;;;;;;;;;;;;19.61;36.66;101064.89;1335789;93;20334;-94
2021/10/07 12:38:51;;;;;;;;;;;;;;;19.20;37.58;101058.78;1335688;93;20243;-94
2021/10/07 12:41:20;;;;;;;;;;;;;;;19.10;38.63;101057.75;1335779;93;20875;-94
2021/10/07 12:43:54;;;;;;;;;;;;;;;19.08;38.70;101056.27;1335581;92;20349;-94
2021/10/07 12:46:21;;;;;;;;;;;;;;;19.11;38.14;101063.43;1335704;92;20327;-94
2021/10/07 12:49:04;;;;;;;;;;;;;;;19.03;38.68;101072.09;1335917;93;20362;-93
2021/10/07 12:51:28;;;;;;;;;;;;;;;19.03;39.11;101071.58;1335739;92;20222;-93
2021/10/07 12:53:55;;;;;;;;;;;;;;;18.82;38.46;101071.01;1335765;93;20236;-93
2021/10/07 12:56:30;;;;;;;;;;;;;;;18.71;38.70;101068.76;1336204;92;20297;-91
2021/10/07 12:59:02;;;;;;;;;;;;;;;18.64;38.33;101067.82;1335734;91;20856;-91
2021/10/07 13:01:29;;;;;;;;;;;;;;;18.57;39.87;101066.91;1335580;93;20856;-91
2021/10/07 13:04:15;;;;;;;;;;;;;;;18.46;40.58;101066.34;1335705;93;20291;-92
2021/10/07 13:06:43;;;;;;;;;;;;;;;18.49;40.57;101080.70;1335426;93;20730;-93
2021/10/07 13:09:09;;;;;;;;;;;;;;;18.31;39.70;101078.07;1335625;93;20253;-91
2021/10/07 13:11:35;;;;;;;;;;;;;;;18.36;40.11;101079.70;1335523;93;20790;-91
2021/10/07 13:14:02;;;;;;;;;;;;;;;18.32;40.00;101083.23;1335555;93;20239;-93
2021/10/07 13:16:28;;;;;;;;;;;;;;;18.16;40.26;101078.05;1335550;93;20269;-94
2021/10/07 13:18:54;;;;;;;;;;;;;;;18.27;40.35;101073.59;1335549;93;20329;-93
2021/10/07 13:21:21;;;;;;;;;;;;;;;18.17;40.65;101068.47;1335751;93;20246;-94
2021/10/07 13:23:47;;;;;;;;;;;;;;;18.15;41.02;101076.36;1335749;93;20347;-92